sensor_id;sensor_type;location;lat;lon;timestamp;temperature;humidity
13433;DHT22;6789;47.678;9.158;2023-07-09T00:00:12;21.10;99.90
13433;DHT22;6789;47.678;9.158;2023-07-09T00:05:17;21.00;99.90
13433;DHT22;6789;47.678;9.158;2023-07-09T00:10:17;21.10;99.90
13433;DHT22;6789;47.678;9.158;2023-07-09T00:15:12;20.90;99.90
13433;DHT22;6789;47.678;9.158;2023-07-09T00:20:18;20.90;99.90
13433;DHT22;6789;47.678;9.158;2023-07-09T00:25:10;20.80;99.90
13433;DHT22;6789;47.678;9.158;2023-07-09T00:30:15;20.90;99.90
13433;DHT22;6789;47.678;9.158;2023-07-09T00:35:14;20.90;99.90
13433;DHT22;6789;47.678;9.158;2023-07-09T00:40:14;20.80;99.90
13433;DHT22;6789;47.678;9.158;2023-07-09T00:45:20;21.00;99.90
13433;DHT22;6789;47.678;9.158;2023-07-09T00:50:35;20.80;99.90
13433;DHT22;6789;47.678;9.158;2023-07-09T00:55:37;20.70;99.90
13433;DHT22;6789;47.678;9.158;2023-07-09T01:00:37;20.50;99.90
13433;DHT22;6789;47.678;9.158;2023-07-09T01:05:39;20.50;99.90
13433;DHT22;6789;47.678;9.158;2023-07-09T01:10:31;20.30;99.90
13433;DHT22;6789;47.678;9.158;2023-07-09T01:15:23;20.40;99.90
13433;DHT22;6789;47.678;9.158;2023-07-09T01:20:17;20.40;99.90
13433;DHT22;6789;47.678;9.158;2023-07-09T01:25:17;20.20;99.90
13433;DHT22;6789;47.678;9.158;2023-07-09T01:30:17;20.40;99.90
13433;DHT22;6789;47.678;9.158;2023-07-09T01:35:16;20.50;99.90
13433;DHT22;6789;47.678;9.158;2023-07-09T01:40:13;20.30;99.90
13433;DHT22;6789;47.678;9.158;2023-07-09T01:45:23;20.20;99.90
13433;DHT22;6789;47.678;9.158;2023-07-09T01:50:16;20.50;99.90
13433;DHT22;6789;47.678;9.158;2023-07-09T01:55:13;20.40;99.90
13433;DHT22;6789;47.678;9.158;2023-07-09T02:00:16;20.20;99.90
13433;DHT22;6789;47.678;9.158;2023-07-09T02:05:09;20.10;99.90
13433;DHT22;6789;47.678;9.158;2023-07-09T02:10:02;20.00;99.90
13433;DHT22;6789;47.678;9.158;2023-07-09T02:14:54;20.00;99.90
13433;DHT22;6789;47.678;9.158;2023-07-09T02:19:46;19.90;99.90
13433;DHT22;6789;47.678;9.158;2023-07-09T02:24:38;20.00;99.90
13433;DHT22;6789;47.678;9.158;2023-07-09T02:29:31;19.90;99.90
13433;DHT22;6789;47.678;9.158;2023-07-09T02:34:25;19.70;99.90
13433;DHT22;6789;47.678;9.158;2023-07-09T02:39:18;19.50;99.90
13433;DHT22;6789;47.678;9.158;2023-07-09T02:44:10;19.60;99.90
13433;DHT22;6789;47.678;9.158;2023-07-09T02:49:03;19.50;99.90
13433;DHT22;6789;47.678;9.158;2023-07-09T02:53:57;19.60;99.90
13433;DHT22;6789;47.678;9.158;2023-07-09T02:58:51;19.60;99.90
13433;DHT22;6789;47.678;9.158;2023-07-09T03:03:43;19.50;99.90
13433;DHT22;6789;47.678;9.158;2023-07-09T03:08:35;19.40;99.90
13433;DHT22;6789;47.678;9.158;2023-07-09T03:13:27;19.20;99.90
13433;DHT22;6789;47.678;9.158;2023-07-09T03:18:19;19.30;99.90
13433;DHT22;6789;47.678;9.158;2023-07-09T03:23:10;19.40;99.90
13433;DHT22;6789;47.678;9.158;2023-07-09T03:28:03;19.50;99.90
13433;DHT22;6789;47.678;9.158;2023-07-09T03:32:54;19.60;99.90
13433;DHT22;6789;47.678;9.158;2023-07-09T03:37:46;19.70;99.90
13433;DHT22;6789;47.678;9.158;2023-07-09T03:42:38;19.80;99.90
13433;DHT22;6789;47.678;9.158;2023-07-09T03:47:30;19.80;99.90
13433;DHT22;6789;47.678;9.158;2023-07-09T03:52:21;19.70;99.90
13433;DHT22;6789;47.678;9.158;2023-07-09T03:57:13;19.60;99.90
13433;DHT22;6789;47.678;9.158;2023-07-09T04:02:05;19.50;99.90
13433;DHT22;6789;47.678;9.158;2023-07-09T04:06:58;19.40;99.90
13433;DHT22;6789;47.678;9.158;2023-07-09T04:11:50;19.90;99.90
13433;DHT22;6789;47.678;9.158;2023-07-09T04:16:42;20.60;99.90
13433;DHT22;6789;47.678;9.158;2023-07-09T04:21:33;21.80;99.90
13433;DHT22;6789;47.678;9.158;2023-07-09T04:26:25;23.00;99.90
13433;DHT22;6789;47.678;9.158;2023-07-09T04:31:18;23.90;99.90
13433;DHT22;6789;47.678;9.158;2023-07-09T04:36:09;25.10;99.90
13433;DHT22;6789;47.678;9.158;2023-07-09T04:41:04;26.20;99.90
13433;DHT22;6789;47.678;9.158;2023-07-09T04:45:56;27.10;99.90
13433;DHT22;6789;47.678;9.158;2023-07-09T04:50:47;27.80;99.90
13433;DHT22;6789;47.678;9.158;2023-07-09T04:55:41;28.30;99.90
13433;DHT22;6789;47.678;9.158;2023-07-09T05:00:33;28.50;99.90
13433;DHT22;6789;47.678;9.158;2023-07-09T05:05:25;29.20;99.90
13433;DHT22;6789;47.678;9.158;2023-07-09T05:10:17;29.50;99.90
13433;DHT22;6789;47.678;9.158;2023-07-09T05:15:09;30.10;99.90
13433;DHT22;6789;47.678;9.158;2023-07-09T05:20:01;30.20;99.90
13433;DHT22;6789;47.678;9.158;2023-07-09T05:24:53;30.90;99.90
13433;DHT22;6789;47.678;9.158;2023-07-09T05:29:45;31.10;99.90
13433;DHT22;6789;47.678;9.158;2023-07-09T05:34:37;31.30;99.90
13433;DHT22;6789;47.678;9.158;2023-07-09T05:39:28;31.90;99.90
13433;DHT22;6789;47.678;9.158;2023-07-09T05:44:20;31.50;99.90
13433;DHT22;6789;47.678;9.158;2023-07-09T05:49:12;31.70;99.90
13433;DHT22;6789;47.678;9.158;2023-07-09T05:54:05;32.20;99.90
13433;DHT22;6789;47.678;9.158;2023-07-09T05:58:57;32.20;99.90
13433;DHT22;6789;47.678;9.158;2023-07-09T06:03:49;32.10;99.90
13433;DHT22;6789;47.678;9.158;2023-07-09T06:08:41;32.70;99.90
13433;DHT22;6789;47.678;9.158;2023-07-09T06:13:33;32.60;99.90
13433;DHT22;6789;47.678;9.158;2023-07-09T06:18:26;31.50;99.90
13433;DHT22;6789;47.678;9.158;2023-07-09T06:23:22;31.20;99.90
13433;DHT22;6789;47.678;9.158;2023-07-09T06:28:18;31.60;99.90
13433;DHT22;6789;47.678;9.158;2023-07-09T06:33:13;31.50;99.90
13433;DHT22;6789;47.678;9.158;2023-07-09T06:38:06;30.60;99.90
13433;DHT22;6789;47.678;9.158;2023-07-09T06:42:58;29.90;99.90
13433;DHT22;6789;47.678;9.158;2023-07-09T06:47:50;29.40;99.90
13433;DHT22;6789;47.678;9.158;2023-07-09T06:52:42;29.00;99.90
13433;DHT22;6789;47.678;9.158;2023-07-09T06:57:34;29.20;99.90
13433;DHT22;6789;47.678;9.158;2023-07-09T07:02:26;29.10;99.90
13433;DHT22;6789;47.678;9.158;2023-07-09T07:07:19;29.10;99.90
13433;DHT22;6789;47.678;9.158;2023-07-09T07:12:40;29.00;99.90
13433;DHT22;6789;47.678;9.158;2023-07-09T07:17:36;29.10;99.90
13433;DHT22;6789;47.678;9.158;2023-07-09T07:22:28;29.20;99.90
13433;DHT22;6789;47.678;9.158;2023-07-09T07:27:20;29.20;99.90
13433;DHT22;6789;47.678;9.158;2023-07-09T07:32:12;29.20;99.90
13433;DHT22;6789;47.678;9.158;2023-07-09T07:37:05;28.70;99.90
13433;DHT22;6789;47.678;9.158;2023-07-09T07:41:56;28.50;99.90
13433;DHT22;6789;47.678;9.158;2023-07-09T07:46:49;28.70;99.90
13433;DHT22;6789;47.678;9.158;2023-07-09T07:51:42;29.10;99.90
13433;DHT22;6789;47.678;9.158;2023-07-09T07:56:36;29.10;99.90
13433;DHT22;6789;47.678;9.158;2023-07-09T08:01:31;28.80;99.90
13433;DHT22;6789;47.678;9.158;2023-07-09T08:06:26;28.70;99.90
13433;DHT22;6789;47.678;9.158;2023-07-09T08:11:18;28.60;99.90
13433;DHT22;6789;47.678;9.158;2023-07-09T08:16:10;28.90;99.90
13433;DHT22;6789;47.678;9.158;2023-07-09T08:21:03;29.00;99.90
13433;DHT22;6789;47.678;9.158;2023-07-09T08:25:57;28.90;99.90
13433;DHT22;6789;47.678;9.158;2023-07-09T08:30:54;29.30;99.90
13433;DHT22;6789;47.678;9.158;2023-07-09T08:35:51;29.70;99.90
13433;DHT22;6789;47.678;9.158;2023-07-09T08:40:58;30.00;99.90
13433;DHT22;6789;47.678;9.158;2023-07-09T08:46:03;29.90;99.90
13433;DHT22;6789;47.678;9.158;2023-07-09T08:51:04;30.10;99.90
13433;DHT22;6789;47.678;9.158;2023-07-09T08:56:09;30.20;99.90
13433;DHT22;6789;47.678;9.158;2023-07-09T09:01:05;30.50;99.90
13433;DHT22;6789;47.678;9.158;2023-07-09T09:06:16;30.90;99.90
13433;DHT22;6789;47.678;9.158;2023-07-09T09:11:24;30.60;99.90
13433;DHT22;6789;47.678;9.158;2023-07-09T09:16:39;30.70;99.90
13433;DHT22;6789;47.678;9.158;2023-07-09T09:21:37;30.70;99.90
13433;DHT22;6789;47.678;9.158;2023-07-09T09:26:34;30.90;99.90
13433;DHT22;6789;47.678;9.158;2023-07-09T09:31:28;31.20;99.90
13433;DHT22;6789;47.678;9.158;2023-07-09T09:36:22;31.50;99.90
13433;DHT22;6789;47.678;9.158;2023-07-09T09:41:18;31.70;99.90
13433;DHT22;6789;47.678;9.158;2023-07-09T09:46:21;31.70;99.90
13433;DHT22;6789;47.678;9.158;2023-07-09T09:51:16;32.00;99.90
13433;DHT22;6789;47.678;9.158;2023-07-09T09:56:17;32.20;99.90
13433;DHT22;6789;47.678;9.158;2023-07-09T10:01:18;32.60;99.90
13433;DHT22;6789;47.678;9.158;2023-07-09T10:06:39;32.60;99.90
13433;DHT22;6789;47.678;9.158;2023-07-09T10:11:49;32.80;99.90
13433;DHT22;6789;47.678;9.158;2023-07-09T10:16:53;32.70;99.90
13433;DHT22;6789;47.678;9.158;2023-07-09T10:22:06;32.90;99.90
13433;DHT22;6789;47.678;9.158;2023-07-09T10:32:49;33.00;99.90
13433;DHT22;6789;47.678;9.158;2023-07-09T10:38:23;32.90;99.90
13433;DHT22;6789;47.678;9.158;2023-07-09T10:48:59;33.20;99.90
13433;DHT22;6789;47.678;9.158;2023-07-09T10:54:15;33.20;99.90
13433;DHT22;6789;47.678;9.158;2023-07-09T10:59:35;33.20;99.40
13433;DHT22;6789;47.678;9.158;2023-07-09T11:04:40;33.10;97.70
13433;DHT22;6789;47.678;9.158;2023-07-09T11:15:38;33.40;96.90
13433;DHT22;6789;47.678;9.158;2023-07-09T11:21:22;33.50;96.30
13433;DHT22;6789;47.678;9.158;2023-07-09T11:26:34;33.30;95.80
13433;DHT22;6789;47.678;9.158;2023-07-09T11:31:39;33.30;96.10
13433;DHT22;6789;47.678;9.158;2023-07-09T11:36:58;33.40;95.70
13433;DHT22;6789;47.678;9.158;2023-07-09T11:41:55;33.60;94.90
13433;DHT22;6789;47.678;9.158;2023-07-09T11:47:19;33.80;94.20
13433;DHT22;6789;47.678;9.158;2023-07-09T11:52:45;33.70;92.30
13433;DHT22;6789;47.678;9.158;2023-07-09T11:57:56;34.00;92.60
13433;DHT22;6789;47.678;9.158;2023-07-09T12:02:54;34.10;92.00
13433;DHT22;6789;47.678;9.158;2023-07-09T12:07:52;34.20;91.60
13433;DHT22;6789;47.678;9.158;2023-07-09T12:12:55;34.30;91.00
13433;DHT22;6789;47.678;9.158;2023-07-09T12:18:00;34.10;90.40
13433;DHT22;6789;47.678;9.158;2023-07-09T12:23:10;34.40;90.40
13433;DHT22;6789;47.678;9.158;2023-07-09T12:28:20;34.80;89.20
13433;DHT22;6789;47.678;9.158;2023-07-09T12:33:17;35.10;86.00
13433;DHT22;6789;47.678;9.158;2023-07-09T12:38:21;35.50;81.60
13433;DHT22;6789;47.678;9.158;2023-07-09T12:43:27;35.50;79.40
13433;DHT22;6789;47.678;9.158;2023-07-09T12:48:26;35.50;75.20
13433;DHT22;6789;47.678;9.158;2023-07-09T12:53:21;35.20;74.90
13433;DHT22;6789;47.678;9.158;2023-07-09T12:58:43;35.20;74.40
13433;DHT22;6789;47.678;9.158;2023-07-09T13:03:35;35.50;75.60
13433;DHT22;6789;47.678;9.158;2023-07-09T13:08:29;35.70;73.60
13433;DHT22;6789;47.678;9.158;2023-07-09T13:13:24;35.50;73.00
13433;DHT22;6789;47.678;9.158;2023-07-09T13:18:16;35.60;70.90
13433;DHT22;6789;47.678;9.158;2023-07-09T13:23:10;35.60;69.90
13433;DHT22;6789;47.678;9.158;2023-07-09T13:28:03;35.50;70.90
13433;DHT22;6789;47.678;9.158;2023-07-09T13:32:55;35.40;68.90
13433;DHT22;6789;47.678;9.158;2023-07-09T13:37:47;35.50;70.30
13433;DHT22;6789;47.678;9.158;2023-07-09T13:42:39;35.60;68.20
13433;DHT22;6789;47.678;9.158;2023-07-09T13:47:32;35.60;67.60
13433;DHT22;6789;47.678;9.158;2023-07-09T13:52:26;35.60;68.20
13433;DHT22;6789;47.678;9.158;2023-07-09T13:57:21;35.50;65.50
13433;DHT22;6789;47.678;9.158;2023-07-09T14:07:35;35.60;64.90
13433;DHT22;6789;47.678;9.158;2023-07-09T14:12:33;35.60;65.20
13433;DHT22;6789;47.678;9.158;2023-07-09T14:17:33;35.60;64.40
13433;DHT22;6789;47.678;9.158;2023-07-09T14:22:34;35.80;62.40
13433;DHT22;6789;47.678;9.158;2023-07-09T14:27:32;35.70;63.40
13433;DHT22;6789;47.678;9.158;2023-07-09T14:37:55;35.80;57.30
13433;DHT22;6789;47.678;9.158;2023-07-09T14:43:04;35.90;57.40
13433;DHT22;6789;47.678;9.158;2023-07-09T14:48:17;35.70;55.50
13433;DHT22;6789;47.678;9.158;2023-07-09T14:53:25;35.70;56.00
13433;DHT22;6789;47.678;9.158;2023-07-09T14:58:23;35.90;58.20
13433;DHT22;6789;47.678;9.158;2023-07-09T15:03:20;35.70;56.80
13433;DHT22;6789;47.678;9.158;2023-07-09T15:08:21;35.60;56.50
13433;DHT22;6789;47.678;9.158;2023-07-09T15:18:25;35.20;58.30
13433;DHT22;6789;47.678;9.158;2023-07-09T15:23:38;35.30;59.30
13433;DHT22;6789;47.678;9.158;2023-07-09T15:28:32;35.20;57.50
13433;DHT22;6789;47.678;9.158;2023-07-09T15:33:24;34.50;58.00
13433;DHT22;6789;47.678;9.158;2023-07-09T15:38:37;34.40;58.40
13433;DHT22;6789;47.678;9.158;2023-07-09T15:43:33;34.40;58.80
13433;DHT22;6789;47.678;9.158;2023-07-09T15:48:27;34.40;57.90
13433;DHT22;6789;47.678;9.158;2023-07-09T15:53:26;34.10;58.50
13433;DHT22;6789;47.678;9.158;2023-07-09T15:58:26;34.40;57.80
13433;DHT22;6789;47.678;9.158;2023-07-09T16:03:21;34.40;57.50
13433;DHT22;6789;47.678;9.158;2023-07-09T16:08:18;34.50;58.00
13433;DHT22;6789;47.678;9.158;2023-07-09T16:13:19;34.30;57.70
13433;DHT22;6789;47.678;9.158;2023-07-09T16:18:13;34.20;57.60
13433;DHT22;6789;47.678;9.158;2023-07-09T16:23:26;34.00;57.80
13433;DHT22;6789;47.678;9.158;2023-07-09T16:28:19;33.80;57.90
13433;DHT22;6789;47.678;9.158;2023-07-09T16:33:12;33.90;59.00
13433;DHT22;6789;47.678;9.158;2023-07-09T16:38:05;33.70;58.30
13433;DHT22;6789;47.678;9.158;2023-07-09T16:43:13;33.80;58.90
13433;DHT22;6789;47.678;9.158;2023-07-09T16:48:22;33.80;58.20
13433;DHT22;6789;47.678;9.158;2023-07-09T16:53:16;33.90;58.20
13433;DHT22;6789;47.678;9.158;2023-07-09T16:58:30;33.80;58.70
13433;DHT22;6789;47.678;9.158;2023-07-09T17:03:30;33.80;58.50
13433;DHT22;6789;47.678;9.158;2023-07-09T17:08:24;33.90;58.80
13433;DHT22;6789;47.678;9.158;2023-07-09T17:13:25;34.00;58.20
13433;DHT22;6789;47.678;9.158;2023-07-09T17:18:22;34.10;58.30
13433;DHT22;6789;47.678;9.158;2023-07-09T17:23:14;34.00;58.00
13433;DHT22;6789;47.678;9.158;2023-07-09T17:28:21;34.00;58.50
13433;DHT22;6789;47.678;9.158;2023-07-09T17:33:17;34.00;57.20
13433;DHT22;6789;47.678;9.158;2023-07-09T17:38:23;33.90;56.80
13433;DHT22;6789;47.678;9.158;2023-07-09T17:43:22;34.00;56.60
13433;DHT22;6789;47.678;9.158;2023-07-09T17:48:19;34.00;56.30
13433;DHT22;6789;47.678;9.158;2023-07-09T17:53:34;33.80;57.10
13433;DHT22;6789;47.678;9.158;2023-07-09T17:58:38;33.90;57.20
13433;DHT22;6789;47.678;9.158;2023-07-09T18:03:33;33.80;57.10
13433;DHT22;6789;47.678;9.158;2023-07-09T18:08:26;33.70;57.10
13433;DHT22;6789;47.678;9.158;2023-07-09T18:13:26;33.60;57.40
13433;DHT22;6789;47.678;9.158;2023-07-09T18:18:20;33.50;56.60
13433;DHT22;6789;47.678;9.158;2023-07-09T18:23:12;33.40;57.20
13433;DHT22;6789;47.678;9.158;2023-07-09T18:28:05;33.30;59.50
13433;DHT22;6789;47.678;9.158;2023-07-09T18:33:01;33.20;60.00
13433;DHT22;6789;47.678;9.158;2023-07-09T18:37:57;32.70;62.40
13433;DHT22;6789;47.678;9.158;2023-07-09T18:42:51;32.40;62.70
13433;DHT22;6789;47.678;9.158;2023-07-09T18:47:44;32.10;63.30
13433;DHT22;6789;47.678;9.158;2023-07-09T18:52:36;32.00;66.10
13433;DHT22;6789;47.678;9.158;2023-07-09T18:57:28;31.90;70.00
13433;DHT22;6789;47.678;9.158;2023-07-09T19:02:22;31.60;70.20
13433;DHT22;6789;47.678;9.158;2023-07-09T19:07:18;31.30;70.40
13433;DHT22;6789;47.678;9.158;2023-07-09T19:12:11;31.00;71.00
13433;DHT22;6789;47.678;9.158;2023-07-09T19:17:09;30.70;71.40
13433;DHT22;6789;47.678;9.158;2023-07-09T19:22:09;30.40;72.80
13433;DHT22;6789;47.678;9.158;2023-07-09T19:27:03;30.20;72.80
13433;DHT22;6789;47.678;9.158;2023-07-09T19:31:59;29.90;74.20
13433;DHT22;6789;47.678;9.158;2023-07-09T19:36:58;29.60;75.80
13433;DHT22;6789;47.678;9.158;2023-07-09T19:41:53;29.40;76.60
13433;DHT22;6789;47.678;9.158;2023-07-09T19:46:50;28.80;78.30
13433;DHT22;6789;47.678;9.158;2023-07-09T19:51:42;28.60;81.60
13433;DHT22;6789;47.678;9.158;2023-07-09T19:56:34;28.50;81.90
13433;DHT22;6789;47.678;9.158;2023-07-09T20:01:26;28.20;83.70
13433;DHT22;6789;47.678;9.158;2023-07-09T20:06:18;28.00;84.20
13433;DHT22;6789;47.678;9.158;2023-07-09T20:11:11;27.80;86.20
13433;DHT22;6789;47.678;9.158;2023-07-09T20:16:25;27.60;87.10
13433;DHT22;6789;47.678;9.158;2023-07-09T20:21:23;27.50;88.70
13433;DHT22;6789;47.678;9.158;2023-07-09T20:26:16;27.30;90.40
13433;DHT22;6789;47.678;9.158;2023-07-09T20:31:20;27.10;91.00
13433;DHT22;6789;47.678;9.158;2023-07-09T20:36:14;26.90;92.10
13433;DHT22;6789;47.678;9.158;2023-07-09T20:41:16;26.80;93.30
13433;DHT22;6789;47.678;9.158;2023-07-09T20:46:10;26.60;94.20
13433;DHT22;6789;47.678;9.158;2023-07-09T20:51:02;26.40;94.80
13433;DHT22;6789;47.678;9.158;2023-07-09T20:55:57;26.20;96.30
13433;DHT22;6789;47.678;9.158;2023-07-09T21:00:51;26.10;96.20
13433;DHT22;6789;47.678;9.158;2023-07-09T21:05:48;25.90;97.20
13433;DHT22;6789;47.678;9.158;2023-07-09T21:10:41;25.80;98.50
13433;DHT22;6789;47.678;9.158;2023-07-09T21:15:34;25.70;98.10
13433;DHT22;6789;47.678;9.158;2023-07-09T21:20:27;25.60;98.80
13433;DHT22;6789;47.678;9.158;2023-07-09T21:25:23;25.40;99.70
13433;DHT22;6789;47.678;9.158;2023-07-09T21:30:18;25.20;99.90
13433;DHT22;6789;47.678;9.158;2023-07-09T21:35:24;25.10;99.90
13433;DHT22;6789;47.678;9.158;2023-07-09T21:40:31;24.90;99.90
13433;DHT22;6789;47.678;9.158;2023-07-09T21:45:36;24.80;99.90
13433;DHT22;6789;47.678;9.158;2023-07-09T21:50:33;24.70;99.90
13433;DHT22;6789;47.678;9.158;2023-07-09T21:55:26;24.70;99.90
13433;DHT22;6789;47.678;9.158;2023-07-09T22:00:25;24.60;99.90
13433;DHT22;6789;47.678;9.158;2023-07-09T22:05:23;24.50;99.90
13433;DHT22;6789;47.678;9.158;2023-07-09T22:10:20;24.40;99.90
13433;DHT22;6789;47.678;9.158;2023-07-09T22:15:23;24.40;99.90
13433;DHT22;6789;47.678;9.158;2023-07-09T22:20:20;24.40;99.90
13433;DHT22;6789;47.678;9.158;2023-07-09T22:25:21;24.50;99.90
13433;DHT22;6789;47.678;9.158;2023-07-09T22:30:16;24.50;99.90
13433;DHT22;6789;47.678;9.158;2023-07-09T22:35:13;24.40;99.90
13433;DHT22;6789;47.678;9.158;2023-07-09T22:45:04;24.20;99.90
13433;DHT22;6789;47.678;9.158;2023-07-09T22:49:56;24.20;99.90
13433;DHT22;6789;47.678;9.158;2023-07-09T22:54:48;24.10;99.90
13433;DHT22;6789;47.678;9.158;2023-07-09T22:59:40;24.00;99.90
13433;DHT22;6789;47.678;9.158;2023-07-09T23:04:32;23.90;99.90
13433;DHT22;6789;47.678;9.158;2023-07-09T23:09:24;23.70;99.90
13433;DHT22;6789;47.678;9.158;2023-07-09T23:14:23;23.70;99.90
13433;DHT22;6789;47.678;9.158;2023-07-09T23:19:24;23.50;99.90
13433;DHT22;6789;47.678;9.158;2023-07-09T23:24:18;23.60;99.90
13433;DHT22;6789;47.678;9.158;2023-07-09T23:29:12;23.40;99.90
13433;DHT22;6789;47.678;9.158;2023-07-09T23:34:12;23.40;99.90
13433;DHT22;6789;47.678;9.158;2023-07-09T23:39:06;23.40;99.90
13433;DHT22;6789;47.678;9.158;2023-07-09T23:44:00;23.30;99.90
13433;DHT22;6789;47.678;9.158;2023-07-09T23:48:54;23.20;99.90
13433;DHT22;6789;47.678;9.158;2023-07-09T23:54:00;23.20;99.90
13433;DHT22;6789;47.678;9.158;2023-07-09T23:58:53;23.20;99.90
